Time;durP1;ratioP1;P1;durP2;ratioP2;P2;SDS_P1;SDS_P2;PMS_P1;PMS_P2;Temp;Humidity;BMP_temperature;BMP_pressure;BME280_temperature;BME280_humidity;BME280_pressure;Samples;Min_cycle;Max_cycle;Signal;HPM_P1;HPM_P2
2023/03/28 00:07:07;;;;;;;1130.43;999.90;;;;;;;21.44;45.20;99911.63;20514657;28;20050;-71
2023/03/28 00:17:07;;;;;;;1143.47;999.90;;;;;;;21.44;45.19;99929.25;20518998;28;20509;-71
2023/03/28 00:27:08;;;;;;;1136.97;999.90;;;;;;;21.44;45.06;99942.44;20521480;28;20050;-70
2023/03/28 00:37:16;;;;;;;1132.45;999.90;;;;;;;21.44;45.06;99969.59;20521522;28;20109;-70
2023/03/28 00:47:37;;;;;;;1129.45;999.90;;;;;;;21.41;45.00;99969.00;20516316;28;20130;-70
2023/03/28 00:57:38;;;;;;;1140.80;999.90;;;;;;;21.36;45.14;99987.88;20507443;28;20046;-70
2023/03/28 01:07:44;;;;;;;1143.35;999.90;;;;;;;21.37;44.81;100002.72;20514072;28;20770;-70
2023/03/28 01:17:46;;;;;;;1150.55;999.90;;;;;;;21.34;45.01;100000.31;20499210;28;20039;-70
2023/03/28 01:28:00;;;;;;;1143.53;999.90;;;;;;;21.32;44.49;100006.69;20514178;28;20086;-71
2023/03/28 01:38:04;;;;;;;1149.13;999.90;;;;;;;21.29;45.08;100023.56;20511551;28;20066;-72
2023/03/28 01:48:25;;;;;;;1147.10;999.90;;;;;;;21.24;44.45;100037.13;20515067;28;20053;-71
2023/03/28 01:58:45;;;;;;;1147.38;999.90;;;;;;;21.23;44.36;100043.34;20509702;28;20043;-71
2023/03/28 02:08:48;;;;;;;1146.20;999.90;;;;;;;21.20;44.46;100062.06;20507196;28;20514;-71
2023/03/28 02:18:55;;;;;;;1147.18;999.90;;;;;;;21.21;44.46;100073.41;20507943;28;20133;-71
2023/03/28 02:28:58;;;;;;;1143.93;999.90;;;;;;;21.19;44.53;100086.69;20502980;28;20688;-70
2023/03/28 02:39:23;;;;;;;1141.50;999.90;;;;;;;21.18;44.71;100098.19;20506295;28;20137;-71
2023/03/28 02:49:45;;;;;;;1146.50;999.90;;;;;;;21.15;44.51;100114.22;20506865;28;20098;-71
2023/03/28 02:59:57;;;;;;;1142.50;999.90;;;;;;;21.16;44.68;100122.97;20499080;28;20043;-70
2023/03/28 03:09:57;;;;;;;1138.10;999.90;;;;;;;21.16;44.38;100129.06;20497699;28;20086;-70
2023/03/28 03:19:58;;;;;;;1148.25;999.90;;;;;;;21.13;44.40;100144.28;20506870;28;20066;-70
2023/03/28 03:29:58;;;;;;;1142.07;999.90;;;;;;;21.09;44.67;100160.34;20507999;28;20046;-70
2023/03/28 03:39:59;;;;;;;1137.13;999.90;;;;;;;21.08;44.48;100174.47;20508189;28;20047;-71
2023/03/28 03:50:04;;;;;;;1141.45;999.90;;;;;;;21.07;44.20;100179.84;20513310;28;20042;-72
2023/03/28 04:00:10;;;;;;;1143.38;999.90;;;;;;;21.13;43.98;100189.03;20508305;28;20051;-73
2023/03/28 04:10:11;;;;;;;1130.57;999.90;;;;;;;21.09;44.29;100205.09;20501383;28;20046;-71
2023/03/28 04:20:12;;;;;;;1142.63;999.90;;;;;;;21.20;44.54;100221.81;20502173;28;20149;-75
2023/03/28 04:30:16;;;;;;;1131.32;999.90;;;;;;;21.32;45.36;100230.53;20513616;28;20509;-72
2023/03/28 04:50:36;;;;;;;1139.72;999.90;;;;;;;21.48;46.27;100261.75;20528934;28;20052;-77
2023/03/28 05:00:38;;;;;;;1131.47;999.90;;;;;;;21.37;42.29;100276.63;20519027;28;20065;-74
2023/03/28 05:10:39;;;;;;;1137.13;999.90;;;;;;;21.45;43.00;100283.91;20523656;28;20559;-76
2023/03/28 05:20:40;;;;;;;1138.40;999.90;;;;;;;21.50;43.43;100288.81;20534997;28;20047;-76
2023/03/28 05:30:41;;;;;;;1131.32;999.90;;;;;;;21.61;44.69;100294.06;20527028;28;20062;-77
2023/03/28 05:40:43;;;;;;;1137.50;999.90;;;;;;;21.69;44.66;100311.88;20522861;28;20498;-73
2023/03/28 05:50:46;;;;;;;1137.47;999.90;;;;;;;21.76;44.64;100318.34;20517617;28;20043;-73
2023/03/28 06:00:46;;;;;;;1137.25;999.90;;;;;;;21.82;44.82;100323.13;20501991;28;20483;-73
2023/03/28 06:10:48;;;;;;;1157.05;999.90;;;;;;;21.89;45.22;100336.66;20515628;28;20045;-76
2023/03/28 06:20:50;;;;;;;1135.75;999.90;;;;;;;21.93;45.24;100361.78;20523053;28;20042;-76
2023/03/28 06:30:51;;;;;;;1092.22;999.90;;;;;;;21.97;44.76;100384.31;20514728;28;20490;-76
2023/03/28 06:40:51;;;;;;;1087.03;999.47;;;;;;;21.95;43.44;100388.00;20502763;28;20074;-74
2023/03/28 06:50:53;;;;;;;1066.70;981.63;;;;;;;22.01;44.13;100413.91;20491285;28;20395;-73
2023/03/28 07:00:54;;;;;;;1094.13;999.90;;;;;;;22.05;44.76;100413.53;20504048;28;20052;-73
2023/03/28 07:10:54;;;;;;;1069.05;983.72;;;;;;;22.10;44.69;100430.78;20511998;28;20043;-73
2023/03/28 07:20:56;;;;;;;1072.95;987.45;;;;;;;22.11;44.39;100420.09;20505792;28;20047;-73
2023/03/28 07:30:59;;;;;;;1063.07;978.23;;;;;;;22.13;44.24;100417.34;20503375;28;20169;-73
2023/03/28 07:41:00;;;;;;;1017.15;934.70;;;;;;;22.15;43.77;100424.16;20517200;28;20398;-74
2023/03/28 07:51:01;;;;;;;1039.85;956.35;;;;;;;22.17;43.79;100437.25;20526928;28;20053;-74
2023/03/28 08:01:11;;;;;;;975.80;895.83;;;;;;;22.17;43.73;100438.06;20540727;28;20051;-74
2023/03/28 08:11:12;;;;;;;926.53;849.13;;;;;;;22.17;43.76;100440.69;20538081;28;20062;-74
2023/03/28 08:21:12;;;;;;;937.55;859.88;;;;;;;22.17;43.72;100440.69;20536965;28;20058;-74
2023/03/28 08:31:15;;;;;;;946.90;868.17;;;;;;;22.18;43.57;100431.84;20531774;28;20073;-75
2023/03/28 08:41:24;;;;;;;947.15;868.80;;;;;;;22.15;42.13;100450.53;20540705;28;20074;-74
2023/03/28 08:51:34;;;;;;;938.78;861.20;;;;;;;22.09;42.03;100442.28;20532711;28;20043;-74
2023/03/28 09:01:35;;;;;;;958.47;879.60;;;;;;;22.10;42.08;100433.41;20529835;28;20035;-74
2023/03/28 09:11:53;;;;;;;930.78;853.67;;;;;;;22.10;42.57;100407.88;20576035;28;20485;-72
2023/03/28 09:21:56;;;;;;;916.95;840.53;;;;;;;22.13;42.49;100420.81;20573972;28;20055;-71
2023/03/28 09:32:03;;;;;;;921.72;844.80;;;;;;;22.15;42.61;100407.50;20575757;28;20074;-72
2023/03/28 09:42:15;;;;;;;940.95;863.05;;;;;;;22.15;42.59;100415.41;20568908;28;20066;-73
2023/03/28 09:52:18;;;;;;;898.20;822.57;;;;;;;22.18;42.38;100409.88;20570794;28;20050;-73
2023/03/28 10:02:31;;;;;;;943.65;865.42;;;;;;;22.21;42.45;100428.09;20544009;28;20077;-72
2023/03/28 10:12:35;;;;;;;904.53;828.63;;;;;;;22.22;42.48;100421.88;20524012;28;20051;-72
2023/03/28 10:22:38;;;;;;;903.80;827.95;;;;;;;22.11;36.93;100406.09;20544936;28;20043;-74
2023/03/28 10:32:41;;;;;;;480.20;434.70;;;;;;;20.04;26.07;100397.13;20539816;28;20050;-71
2023/03/28 10:42:43;;;;;;;;;;;;;;;21.22;31.20;100420.03;20513488;28;20043;-72
2023/03/28 10:52:52;;;;;;;465.42;420.50;;;;;;;21.43;29.62;100434.19;20518358;28;19966;-73
2023/03/28 11:03:12;;;;;;;385.67;349.70;;;;;;;20.30;25.54;100445.19;20512331;28;20043;-73
2023/03/28 11:13:31;;;;;;;422.02;381.45;;;;;;;20.35;21.89;100425.59;20516173;28;20047;-72
2023/03/28 11:23:52;;;;;;;423.38;382.45;;;;;;;20.95;26.58;100432.53;20526765;28;20048;-72
2023/03/28 11:34:17;;;;;;;407.70;367.90;;;;;;;21.30;30.11;100435.25;20538428;28;20046;-72
2023/03/28 11:44:25;;;;;;;413.35;373.23;;;;;;;21.45;29.38;100436.69;20536844;28;20051;-74
2023/03/28 11:54:42;;;;;;;454.15;409.58;;;;;;;21.56;29.79;100433.22;20518008;28;20071;-72
2023/03/28 12:05:18;;;;;;;518.55;469.63;;;;;;;21.64;29.54;100437.91;20524130;28;20043;-71
2023/03/28 12:15:23;;;;;;;528.13;478.50;;;;;;;21.68;27.53;100434.06;20473145;28;20074;-72
2023/03/28 12:25:34;;;;;;;520.88;471.80;;;;;;;21.80;27.66;100433.13;20525846;28;20054;-72
2023/03/28 12:35:58;;;;;;;539.33;488.98;;;;;;;21.85;27.10;100444.13;20526787;28;20039;-73
2023/03/28 12:46:03;;;;;;;508.02;459.75;;;;;;;21.93;28.03;100463.78;20526470;28;20055;-71
2023/03/28 12:56:03;;;;;;;526.38;476.67;;;;;;;22.02;25.39;100463.03;20522513;28;20043;-73
2023/03/28 13:06:10;;;;;;;509.88;461.58;;;;;;;21.88;24.87;100474.69;20509734;28;20047;-75
2023/03/28 13:16:35;;;;;;;524.53;475.13;;;;;;;21.88;24.79;100483.41;20535634;28;20039;-75
2023/03/28 13:26:59;;;;;;;492.63;445.40;;;;;;;21.83;24.26;100500.56;20526194;28;20055;-75
2023/03/28 13:37:17;;;;;;;503.60;455.48;;;;;;;21.60;22.63;100508.47;20531851;28;20078;-73
2023/03/28 13:47:28;;;;;;;732.72;668.85;;;;;;;19.99;21.95;100541.19;20522850;28;20047;-72
2023/03/28 13:57:28;;;;;;;741.55;678.63;;;;;;;18.82;22.28;100552.44;20506749;28;20039;-73
2023/03/28 14:07:30;;;;;;;763.60;699.47;;;;;;;19.52;22.24;100562.72;20513485;28;20054;-73
2023/03/28 14:17:32;;;;;;;675.47;616.53;;;;;;;20.34;22.71;100568.59;20494127;28;20047;-74
2023/03/28 14:27:42;;;;;;;799.57;731.70;;;;;;;20.86;24.01;100572.75;20493335;28;20035;-73
2023/03/28 14:37:47;;;;;;;765.42;699.28;;;;;;;21.29;27.61;100574.00;20500281;28;20044;-73
2023/03/28 14:47:49;;;;;;;617.00;561.08;;;;;;;21.59;29.33;100578.78;20486510;28;20098;-72
2023/03/28 14:57:52;;;;;;;698.00;635.87;;;;;;;21.87;30.58;100589.84;20505059;28;20062;-72
2023/03/28 15:07:55;;;;;;;;;;;;;;;22.23;32.70;100592.38;20499020;28;20130;-71
2023/03/28 15:17:59;;;;;;;775.53;706.67;;;;;;;22.58;32.53;100596.66;20507135;28;19918;-72
2023/03/28 15:28:04;;;;;;;658.63;598.22;;;;;;;22.98;31.68;100629.56;20510328;28;20142;-74
2023/03/28 15:38:07;;;;;;;652.65;592.38;;;;;;;23.32;32.24;100645.31;20504159;28;20533;-73
2023/03/28 15:48:15;;;;;;;653.55;593.22;;;;;;;23.52;31.89;100637.53;20491003;28;20043;-72
2023/03/28 15:58:19;;;;;;;922.35;842.67;;;;;;;22.42;22.22;100685.91;20508209;28;20502;-75
2023/03/28 16:08:33;;;;;;;797.65;727.78;;;;;;;22.70;26.53;100677.50;20509125;28;21343;-77
2023/03/28 16:18:34;;;;;;;797.33;727.28;;;;;;;22.68;28.26;100707.63;20521439;28;20043;-75
2023/03/28 16:28:36;;;;;;;790.17;720.85;;;;;;;22.74;29.13;100724.78;20514495;28;20053;-76
2023/03/28 16:38:38;;;;;;;797.23;727.43;;;;;;;22.77;29.49;100745.66;20522859;28;20783;-76
2023/03/28 16:48:39;;;;;;;1145.70;999.90;;;;;;;22.51;29.43;100759.94;20524950;28;20027;-77
2023/03/28 16:58:41;;;;;;;1156.20;999.90;;;;;;;22.40;31.49;100781.03;20531235;28;20078;-74
2023/03/28 17:08:43;;;;;;;1174.72;999.90;;;;;;;22.33;32.49;100796.44;20526404;28;20043;-76
2023/03/28 17:18:43;;;;;;;1137.43;999.90;;;;;;;22.25;33.37;100825.19;20524110;28;20039;-74
2023/03/28 17:28:44;;;;;;;1102.50;999.90;;;;;;;22.18;34.95;100834.50;20518245;28;20074;-74
2023/03/28 17:38:45;;;;;;;1099.13;999.90;;;;;;;22.13;35.43;100858.63;20513876;28;20110;-74
2023/03/28 17:48:48;;;;;;;960.60;881.22;;;;;;;22.04;36.37;100868.03;20515735;28;20411;-74
2023/03/28 17:58:49;;;;;;;944.58;866.25;;;;;;;22.04;37.87;100893.56;20518273;28;20066;-74
2023/03/28 18:08:49;;;;;;;905.78;827.78;;;;;;;22.10;39.64;100906.31;20522145;28;21761;-75
2023/03/28 18:18:53;;;;;;;902.25;822.00;;;;;;;22.15;40.72;100922.63;20518006;28;20035;-75
2023/03/28 18:28:54;;;;;;;918.30;838.88;;;;;;;22.17;41.16;100938.38;20525382;28;21077;-77
2023/03/28 18:38:56;;;;;;;923.08;845.78;;;;;;;19.98;29.32;100946.91;20526177;28;20049;-77
2023/03/28 18:48:59;;;;;;;1023.03;941.10;;;;;;;21.21;33.91;100937.97;20536655;28;20041;-78
2023/03/28 18:59:02;;;;;;;1017.78;935.55;;;;;;;21.43;35.46;100937.38;20553023;28;20063;-81
2023/03/28 19:09:05;;;;;;;990.40;909.90;;;;;;;21.57;36.71;100948.75;20561835;28;20057;-78
2023/03/28 19:19:07;;;;;;;1139.18;999.90;;;;;;;21.54;38.19;100947.13;20564020;28;20047;-78
2023/03/28 19:29:08;;;;;;;1121.53;999.90;;;;;;;21.61;39.32;100937.03;20554808;28;20108;-83
2023/03/28 19:39:09;;;;;;;1106.60;999.90;;;;;;;21.63;39.49;100943.06;20553779;28;20130;-83
2023/03/28 19:49:10;;;;;;;1129.63;999.90;;;;;;;21.63;39.69;100932.53;20581433;28;20514;-83
2023/03/28 19:59:15;;;;;;;1141.13;999.90;;;;;;;21.63;40.26;100942.19;20590786;28;20573;-74
2023/03/28 20:09:16;;;;;;;1125.18;999.90;;;;;;;21.59;40.89;100944.22;20570278;28;20030;-82
2023/03/28 20:19:16;;;;;;;934.92;857.83;;;;;;;21.58;41.42;100953.91;20549164;28;20051;-82
2023/03/28 20:29:20;;;;;;;971.85;892.65;;;;;;;21.58;41.55;100947.78;20563278;28;20049;-75
2023/03/28 20:39:25;;;;;;;981.35;901.63;;;;;;;21.57;41.46;100949.59;20546479;28;20138;-79
2023/03/28 20:49:26;;;;;;;949.90;871.88;;;;;;;21.54;41.56;100955.03;20539308;28;20498;-79
2023/03/28 20:59:27;;;;;;;974.50;895.25;;;;;;;21.54;41.46;100949.75;20532232;28;20044;-75
2023/03/28 21:09:28;;;;;;;961.97;883.72;;;;;;;21.50;41.60;100974.66;20551038;28;20142;-80
2023/03/28 21:19:29;;;;;;;983.47;904.03;;;;;;;21.49;41.80;100966.88;20563322;28;20043;-78
2023/03/28 21:29:30;;;;;;;946.92;869.42;;;;;;;21.50;41.85;100977.28;20562970;28;20039;-79
2023/03/28 21:39:30;;;;;;;960.08;881.97;;;;;;;21.47;42.07;100969.63;20575541;28;20295;-84
2023/03/28 21:49:32;;;;;;;987.67;908.07;;;;;;;21.44;41.86;100983.81;20562552;28;20238;-79
2023/03/28 21:59:33;;;;;;;991.55;911.85;;;;;;;21.46;42.37;100994.28;20560531;28;21320;-84
2023/03/28 22:09:34;;;;;;;990.33;910.42;;;;;;;21.43;42.15;101019.03;20556060;28;20293;-81
2023/03/28 22:19:36;;;;;;;996.55;916.60;;;;;;;21.44;42.02;101027.78;20558700;28;20039;-82
2023/03/28 22:29:39;;;;;;;984.90;905.60;;;;;;;21.42;42.24;101025.25;20563327;28;20517;-81
2023/03/28 22:39:39;;;;;;;981.47;902.43;;;;;;;21.40;42.35;101039.47;20557181;28;20051;-81
2023/03/28 22:49:40;;;;;;;997.10;917.17;;;;;;;21.38;42.34;101049.28;20538661;28;20043;-80
2023/03/28 22:59:40;;;;;;;985.75;906.42;;;;;;;21.35;42.70;101049.47;20546286;28;20078;-79
2023/03/28 23:09:40;;;;;;;982.72;903.55;;;;;;;21.34;42.22;101068.88;20540389;28;20055;-78
2023/03/28 23:19:47;;;;;;;1006.20;926.13;;;;;;;21.35;42.32;101058.22;20542515;28;20053;-76
2023/03/28 23:29:48;;;;;;;971.67;892.97;;;;;;;21.35;42.16;101086.34;20542628;28;20111;-76
2023/03/28 23:39:48;;;;;;;978.47;899.75;;;;;;;21.35;42.13;101095.09;20552447;28;20130;-79
2023/03/28 23:49:49;;;;;;;957.60;879.97;;;;;;;21.33;42.23;101091.72;20541866;28;20391;-76
2023/03/28 23:59:50;;;;;;;966.58;888.65;;;;;;;21.31;42.46;101108.59;20546475;28;20031;-83
